Stevenson, Connecticut
Current Conditions -  °F | °C
As of 11:55 PM on Wednesday 22 Oct 2014 (Local Time) from KOXC Reporting Station
Overcast Overcast  
Wind Chill: 40°   Ceiling: 1900
Heat Index: 48°   Visibility: 8mi
Dew Point: 41°   Wind: 26mph
Humidity: 76%   Direction: 30°NNE
Pressure: 29.78"   Gusts: 36mph
Location:  41.38°N, 73.18°W
Report Text: KOXC 230355Z 03023G31KT 8SM BKN019 BKN031 OVC085 09/05 A2978 RMK AO1 P0004
Loading
Personal Weather Stations






























Interactive Weather Map
Tropical Storm Tracking
New forecast layout! Learn more

10-Day Weather Forecast

Advertisements
Track Severe Weather on mobile